CET457 KBUR-KSFO
Flight info
| Callsign | CET457 |
|---|---|
| Flight time | 0h 54m |
| Altitude | 36000 |
| Route | OROSZ2 COREZ MAKRS SERFR SERFR4 |
| Aircraft | B737/M-SDE2E3FGHIRWXY/LB1 |
Departure
| Time | 2026-05-05 15:10 |
|---|---|
| Airport | Hollywood Burbank/Bob Hope Airport (KBUR) |
Arrival
| Time | 2026-05-05 16:04 |
|---|---|
| Airport | San Francisco International Airport (KSFO) |
| Time | Latitude | Longitude | Altitude | Speed | Heading |
|---|---|---|---|---|---|
| 2026-05-05 14:38 | 34.19680 | -118.35062 | 717 ft | 0 kts | 180° |
| 2026-05-05 14:58 | 34.19701 | -118.35059 | 718 ft | 4 kts | 211° |
| 2026-05-05 14:58 | 34.19714 | -118.35037 | 719 ft | 4 kts | 265° |
| 2026-05-05 14:58 | 34.19715 | -118.35022 | 718 ft | 1 kts | 272° |
| 2026-05-05 14:59 | 34.19715 | -118.35021 | 718 ft | 0 kts | 272° |
| 2026-05-05 15:03 | 34.19715 | -118.35022 | 717 ft | 0 kts | 272° |
| 2026-05-05 15:03 | 34.19715 | -118.35023 | 717 ft | 0 kts | 271° |
| 2026-05-05 15:03 | 34.19715 | -118.35029 | 717 ft | 1 kts | 272° |
| 2026-05-05 15:03 | 34.19715 | -118.35036 | 717 ft | 1 kts | 272° |
| 2026-05-05 15:04 | 34.19715 | -118.35044 | 720 ft | 1 kts | 272° |
| 2026-05-05 15:04 | 34.19716 | -118.35064 | 717 ft | 3 kts | 272° |
| 2026-05-05 15:04 | 34.19716 | -118.35100 | 718 ft | 5 kts | 269° |
| 2026-05-05 15:04 | 34.19716 | -118.35149 | 718 ft | 7 kts | 272° |
| 2026-05-05 15:05 | 34.19719 | -118.35288 | 720 ft | 10 kts | 273° |
| 2026-05-05 15:05 | 34.19723 | -118.35376 | 722 ft | 11 kts | 283° |
| 2026-05-05 15:05 | 34.19756 | -118.35464 | 725 ft | 12 kts | 308° |
| 2026-05-05 15:06 | 34.19822 | -118.35519 | 727 ft | 12 kts | 346° |
| 2026-05-05 15:06 | 34.19913 | -118.35546 | 726 ft | 14 kts | 346° |
| 2026-05-05 15:06 | 34.20011 | -118.35574 | 727 ft | 15 kts | 348° |
| 2026-05-05 15:06 | 34.20119 | -118.35600 | 729 ft | 16 kts | 350° |
| 2026-05-05 15:07 | 34.20229 | -118.35634 | 731 ft | 17 kts | 346° |
| 2026-05-05 15:07 | 34.20343 | -118.35666 | 732 ft | 17 kts | 346° |
| 2026-05-05 15:07 | 34.20455 | -118.35696 | 734 ft | 17 kts | 346° |
| 2026-05-05 15:07 | 34.20573 | -118.35729 | 736 ft | 17 kts | 345° |
| 2026-05-05 15:08 | 34.20689 | -118.35760 | 737 ft | 17 kts | 347° |
| 2026-05-05 15:08 | 34.20803 | -118.35793 | 738 ft | 17 kts | 346° |
| 2026-05-05 15:08 | 34.20918 | -118.35826 | 741 ft | 17 kts | 347° |
| 2026-05-05 15:08 | 34.20977 | -118.35912 | 742 ft | 14 kts | 262° |
| 2026-05-05 15:09 | 34.20898 | -118.35955 | 741 ft | 17 kts | 168° |
| 2026-05-05 15:09 | 34.20604 | -118.35872 | 735 ft | 82 kts | 167° |
| 2026-05-05 15:09 | 34.19804 | -118.35651 | 735 ft | 149 kts | 167° |
| 2026-05-05 15:09 | 34.18727 | -118.35373 | 1258 ft | 169 kts | 167° |
| 2026-05-05 15:10 | 34.17570 | -118.35314 | 2096 ft | 169 kts | 202° |
| 2026-05-05 15:10 | 34.16594 | -118.36088 | 2994 ft | 171 kts | 221° |
| 2026-05-05 15:10 | 34.15718 | -118.37049 | 3706 ft | 171 kts | 225° |
| 2026-05-05 15:10 | 34.14843 | -118.38126 | 4056 ft | 198 kts | 227° |
| 2026-05-05 15:11 | 34.13900 | -118.39587 | 4019 ft | 236 kts | 246° |
| 2026-05-05 15:11 | 34.13588 | -118.41540 | 4125 ft | 242 kts | 269° |
| 2026-05-05 15:11 | 34.13243 | -118.43515 | 5041 ft | 243 kts | 244° |
| 2026-05-05 15:11 | 34.12619 | -118.45479 | 5835 ft | 260 kts | 263° |
| 2026-05-05 15:12 | 34.12532 | -118.47694 | 6850 ft | 267 kts | 270° |
| 2026-05-05 15:12 | 34.12535 | -118.49951 | 7932 ft | 271 kts | 271° |
| 2026-05-05 15:12 | 34.12548 | -118.52240 | 9019 ft | 275 kts | 271° |
| 2026-05-05 15:12 | 34.12564 | -118.54571 | 10073 ft | 280 kts | 271° |
| 2026-05-05 15:13 | 34.12584 | -118.56979 | 10725 ft | 299 kts | 271° |
| 2026-05-05 15:13 | 34.12615 | -118.59603 | 11128 ft | 323 kts | 273° |
| 2026-05-05 15:13 | 34.13194 | -118.62230 | 11933 ft | 331 kts | 301° |
| 2026-05-05 15:13 | 34.14785 | -118.64225 | 12943 ft | 336 kts | 328° |
| 2026-05-05 15:14 | 34.16951 | -118.65320 | 13948 ft | 341 kts | 338° |
| 2026-05-05 15:14 | 34.19186 | -118.66367 | 14767 ft | 347 kts | 336° |
| 2026-05-05 15:14 | 34.21423 | -118.67501 | 15654 ft | 350 kts | 335° |
| 2026-05-05 15:14 | 34.23665 | -118.68704 | 16558 ft | 354 kts | 335° |
| 2026-05-05 15:15 | 34.25918 | -118.69966 | 17413 ft | 360 kts | 334° |
| 2026-05-05 15:15 | 34.28192 | -118.71272 | 18269 ft | 365 kts | 334° |
| 2026-05-05 15:15 | 34.30490 | -118.72610 | 19027 ft | 369 kts | 334° |
| 2026-05-05 15:15 | 34.32809 | -118.73979 | 19787 ft | 373 kts | 333° |
| 2026-05-05 15:16 | 34.35156 | -118.75372 | 20559 ft | 377 kts | 333° |
| 2026-05-05 15:16 | 34.37522 | -118.76780 | 21317 ft | 381 kts | 333° |
| 2026-05-05 15:16 | 34.39915 | -118.78205 | 22050 ft | 386 kts | 334° |
| 2026-05-05 15:16 | 34.42339 | -118.79650 | 22776 ft | 390 kts | 333° |
| 2026-05-05 15:17 | 34.44785 | -118.81114 | 23479 ft | 395 kts | 333° |
| 2026-05-05 15:17 | 34.47231 | -118.82578 | 24074 ft | 399 kts | 333° |
| 2026-05-05 15:17 | 34.49764 | -118.84094 | 24686 ft | 402 kts | 334° |
| 2026-05-05 15:17 | 34.52283 | -118.85600 | 25299 ft | 405 kts | 334° |
| 2026-05-05 15:18 | 34.54786 | -118.87088 | 25886 ft | 408 kts | 334° |
| 2026-05-05 15:18 | 34.57343 | -118.88611 | 26499 ft | 410 kts | 335° |
| 2026-05-05 15:18 | 34.59899 | -118.90144 | 27190 ft | 410 kts | 335° |
| 2026-05-05 15:18 | 34.62464 | -118.91689 | 27751 ft | 414 kts | 335° |
| 2026-05-05 15:19 | 34.65063 | -118.93255 | 28186 ft | 419 kts | 335° |
| 2026-05-05 15:19 | 34.67683 | -118.94833 | 28713 ft | 423 kts | 335° |
| 2026-05-05 15:19 | 34.70330 | -118.96427 | 29242 ft | 425 kts | 335° |
| 2026-05-05 15:19 | 34.72987 | -118.98027 | 29856 ft | 426 kts | 336° |
| 2026-05-05 15:20 | 34.75635 | -118.99623 | 30453 ft | 424 kts | 336° |
| 2026-05-05 15:20 | 34.78276 | -119.01215 | 30982 ft | 423 kts | 335° |
| 2026-05-05 15:20 | 34.80919 | -119.02810 | 31422 ft | 425 kts | 335° |
| 2026-05-05 15:20 | 34.83574 | -119.04412 | 31832 ft | 427 kts | 335° |
| 2026-05-05 15:21 | 34.86238 | -119.06021 | 32312 ft | 427 kts | 335° |
| 2026-05-05 15:21 | 34.88896 | -119.07627 | 32839 ft | 426 kts | 334° |
| 2026-05-05 15:21 | 34.91543 | -119.09225 | 33323 ft | 425 kts | 334° |
| 2026-05-05 15:21 | 34.94157 | -119.10813 | 33755 ft | 426 kts | 334° |
| 2026-05-05 15:22 | 34.96812 | -119.12426 | 34113 ft | 428 kts | 334° |
| 2026-05-05 15:22 | 34.99479 | -119.14042 | 34411 ft | 429 kts | 334° |
| 2026-05-05 15:22 | 35.02147 | -119.15666 | 34777 ft | 428 kts | 334° |
| 2026-05-05 15:22 | 35.04815 | -119.17293 | 35142 ft | 428 kts | 334° |
| 2026-05-05 15:23 | 35.07481 | -119.18910 | 35477 ft | 428 kts | 334° |
| 2026-05-05 15:23 | 35.10156 | -119.20530 | 35782 ft | 429 kts | 333° |
| 2026-05-05 15:23 | 35.12833 | -119.22154 | 36032 ft | 432 kts | 333° |
| 2026-05-05 15:24 | 35.18250 | -119.25447 | 36018 ft | 433 kts | 334° |
| 2026-05-05 15:24 | 35.23565 | -119.28685 | 36011 ft | 423 kts | 334° |
| 2026-05-05 15:25 | 35.28836 | -119.31917 | 36033 ft | 425 kts | 334° |
| 2026-05-05 15:25 | 35.34149 | -119.35166 | 36025 ft | 427 kts | 334° |
| 2026-05-05 15:26 | 35.39478 | -119.38425 | 36029 ft | 429 kts | 334° |
| 2026-05-05 15:26 | 35.44822 | -119.41707 | 36029 ft | 430 kts | 334° |
| 2026-05-05 15:27 | 35.50178 | -119.45000 | 36024 ft | 430 kts | 334° |
| 2026-05-05 15:27 | 35.52780 | -119.46809 | 36009 ft | 432 kts | 323° |
| 2026-05-05 15:27 | 35.54850 | -119.49472 | 36052 ft | 434 kts | 307° |
| 2026-05-05 15:27 | 35.56306 | -119.52734 | 36017 ft | 438 kts | 291° |
| 2026-05-05 15:28 | 35.57061 | -119.56363 | 36046 ft | 439 kts | 284° |
| 2026-05-05 15:28 | 35.58117 | -119.63758 | 36036 ft | 439 kts | 282° |
| 2026-05-05 15:29 | 35.59117 | -119.71089 | 36028 ft | 437 kts | 283° |
| 2026-05-05 15:29 | 35.60172 | -119.78445 | 36038 ft | 437 kts | 283° |
| 2026-05-05 15:30 | 35.61252 | -119.85788 | 36040 ft | 437 kts | 284° |
| 2026-05-05 15:30 | 35.62334 | -119.93147 | 36040 ft | 437 kts | 284° |
| 2026-05-05 15:31 | 35.63414 | -120.00520 | 36049 ft | 439 kts | 284° |
| 2026-05-05 15:31 | 35.64494 | -120.07910 | 36061 ft | 441 kts | 284° |
| 2026-05-05 15:32 | 35.65566 | -120.15345 | 36048 ft | 442 kts | 284° |
| 2026-05-05 15:32 | 35.66639 | -120.22802 | 36069 ft | 444 kts | 284° |
| 2026-05-05 15:33 | 35.67714 | -120.30293 | 36078 ft | 445 kts | 284° |
| 2026-05-05 15:33 | 35.69376 | -120.37545 | 36078 ft | 437 kts | 299° |
| 2026-05-05 15:34 | 35.71980 | -120.44294 | 36074 ft | 437 kts | 301° |
| 2026-05-05 15:34 | 35.74627 | -120.51035 | 36086 ft | 438 kts | 300° |
| 2026-05-05 15:35 | 35.77240 | -120.57816 | 36092 ft | 439 kts | 300° |
| 2026-05-05 15:35 | 35.79831 | -120.64622 | 36093 ft | 439 kts | 300° |
| 2026-05-05 15:36 | 35.82416 | -120.71446 | 36089 ft | 440 kts | 300° |
| 2026-05-05 15:36 | 35.85005 | -120.78292 | 36081 ft | 441 kts | 300° |
| 2026-05-05 15:37 | 35.87581 | -120.85117 | 36081 ft | 442 kts | 300° |
| 2026-05-05 15:37 | 35.90173 | -120.91996 | 36077 ft | 443 kts | 300° |
| 2026-05-05 15:38 | 35.92763 | -120.98889 | 36073 ft | 443 kts | 300° |
| 2026-05-05 15:38 | 35.95347 | -121.05782 | 36063 ft | 442 kts | 300° |
| 2026-05-05 15:39 | 35.97921 | -121.12662 | 36072 ft | 442 kts | 301° |
| 2026-05-05 15:39 | 35.99210 | -121.16115 | 35674 ft | 446 kts | 301° |
| 2026-05-05 15:39 | 36.00510 | -121.19593 | 35138 ft | 445 kts | 302° |
| 2026-05-05 15:39 | 36.01806 | -121.23067 | 34552 ft | 445 kts | 302° |
| 2026-05-05 15:40 | 36.03093 | -121.26527 | 34114 ft | 441 kts | 303° |
| 2026-05-05 15:40 | 36.04374 | -121.29952 | 33563 ft | 433 kts | 308° |
| 2026-05-05 15:40 | 36.05738 | -121.33262 | 33135 ft | 431 kts | 305° |
| 2026-05-05 15:40 | 36.07254 | -121.36360 | 32647 ft | 410 kts | 321° |
| 2026-05-05 15:41 | 36.09306 | -121.38603 | 32393 ft | 382 kts | 335° |
| 2026-05-05 15:41 | 36.11505 | -121.40372 | 32065 ft | 374 kts | 337° |
| 2026-05-05 15:41 | 36.13702 | -121.42045 | 31684 ft | 368 kts | 338° |
| 2026-05-05 15:41 | 36.15883 | -121.43685 | 31273 ft | 365 kts | 338° |
| 2026-05-05 15:42 | 36.17313 | -121.44766 | 31016 ft | 363 kts | 338° |
| 2026-05-05 15:42 | 36.19459 | -121.46401 | 30625 ft | 362 kts | 337° |
| 2026-05-05 15:42 | 36.21592 | -121.48042 | 30212 ft | 361 kts | 337° |
| 2026-05-05 15:42 | 36.23710 | -121.49682 | 29772 ft | 358 kts | 337° |
| 2026-05-05 15:43 | 36.25807 | -121.51316 | 29339 ft | 354 kts | 336° |
| 2026-05-05 15:43 | 36.27885 | -121.52939 | 28871 ft | 350 kts | 336° |
| 2026-05-05 15:43 | 36.29928 | -121.54538 | 28495 ft | 346 kts | 336° |
| 2026-05-05 15:43 | 36.31956 | -121.56125 | 28066 ft | 343 kts | 336° |
| 2026-05-05 15:44 | 36.33965 | -121.57697 | 27643 ft | 341 kts | 336° |
| 2026-05-05 15:44 | 36.35962 | -121.59261 | 27229 ft | 338 kts | 336° |
| 2026-05-05 15:44 | 36.37946 | -121.60816 | 26814 ft | 336 kts | 335° |
| 2026-05-05 15:44 | 36.39921 | -121.62364 | 26396 ft | 334 kts | 335° |
| 2026-05-05 15:45 | 36.41876 | -121.63899 | 25986 ft | 332 kts | 335° |
| 2026-05-05 15:45 | 36.43824 | -121.65429 | 25582 ft | 330 kts | 335° |
| 2026-05-05 15:45 | 36.45759 | -121.66949 | 25175 ft | 328 kts | 335° |
| 2026-05-05 15:45 | 36.47683 | -121.68462 | 24771 ft | 327 kts | 335° |
| 2026-05-05 15:46 | 36.49599 | -121.69969 | 24375 ft | 324 kts | 334° |
| 2026-05-05 15:46 | 36.51508 | -121.71474 | 23887 ft | 326 kts | 334° |
| 2026-05-05 15:46 | 36.53425 | -121.72987 | 23412 ft | 327 kts | 334° |
| 2026-05-05 15:46 | 36.55361 | -121.74515 | 22969 ft | 333 kts | 334° |
| 2026-05-05 15:47 | 36.57362 | -121.76088 | 22533 ft | 356 kts | 333° |
| 2026-05-05 15:47 | 36.59498 | -121.77771 | 22033 ft | 370 kts | 333° |
| 2026-05-05 15:47 | 36.61676 | -121.79499 | 21525 ft | 372 kts | 333° |
| 2026-05-05 15:47 | 36.63850 | -121.81231 | 21060 ft | 369 kts | 332° |
| 2026-05-05 15:48 | 36.65994 | -121.82940 | 20580 ft | 363 kts | 332° |
| 2026-05-05 15:48 | 36.68107 | -121.84620 | 20121 ft | 358 kts | 332° |
| 2026-05-05 15:48 | 36.70188 | -121.86273 | 19667 ft | 353 kts | 332° |
| 2026-05-05 15:48 | 36.72248 | -121.87910 | 19239 ft | 349 kts | 332° |
| 2026-05-05 15:49 | 36.74326 | -121.89418 | 18789 ft | 341 kts | 341° |
| 2026-05-05 15:49 | 36.76571 | -121.90223 | 18330 ft | 333 kts | 351° |
| 2026-05-05 15:49 | 36.78793 | -121.90815 | 17823 ft | 331 kts | 351° |
| 2026-05-05 15:49 | 36.81044 | -121.91402 | 17347 ft | 329 kts | 351° |
| 2026-05-05 15:50 | 36.83276 | -121.91994 | 16912 ft | 327 kts | 351° |
| 2026-05-05 15:50 | 36.85489 | -121.92594 | 16439 ft | 326 kts | 350° |
| 2026-05-05 15:50 | 36.87702 | -121.93204 | 15975 ft | 325 kts | 350° |
| 2026-05-05 15:50 | 36.89911 | -121.93819 | 15523 ft | 325 kts | 350° |
| 2026-05-05 15:51 | 36.92110 | -121.94444 | 15080 ft | 324 kts | 349° |
| 2026-05-05 15:51 | 36.94313 | -121.95058 | 14649 ft | 325 kts | 350° |
| 2026-05-05 15:51 | 36.96514 | -121.95742 | 14153 ft | 328 kts | 346° |
| 2026-05-05 15:51 | 36.98693 | -121.96572 | 13676 ft | 327 kts | 345° |
| 2026-05-05 15:52 | 37.00850 | -121.97438 | 13171 ft | 323 kts | 345° |
| 2026-05-05 15:52 | 37.02973 | -121.98293 | 12722 ft | 318 kts | 345° |
| 2026-05-05 15:52 | 37.05061 | -121.99129 | 12285 ft | 313 kts | 345° |
| 2026-05-05 15:52 | 37.07124 | -121.99947 | 11842 ft | 310 kts | 345° |
| 2026-05-05 15:53 | 37.09173 | -122.00754 | 11411 ft | 308 kts | 345° |
| 2026-05-05 15:53 | 37.11207 | -122.01552 | 10990 ft | 305 kts | 345° |
| 2026-05-05 15:53 | 37.13201 | -122.02334 | 10555 ft | 300 kts | 345° |
| 2026-05-05 15:53 | 37.15148 | -122.03098 | 10179 ft | 286 kts | 346° |
| 2026-05-05 15:54 | 37.16970 | -122.03817 | 10031 ft | 266 kts | 346° |
| 2026-05-05 15:54 | 37.18716 | -122.04500 | 9769 ft | 258 kts | 346° |
| 2026-05-05 15:54 | 37.20402 | -122.05152 | 9467 ft | 256 kts | 346° |
| 2026-05-05 15:54 | 37.22106 | -122.05784 | 9110 ft | 255 kts | 345° |
| 2026-05-05 15:55 | 37.23788 | -122.06492 | 8746 ft | 255 kts | 345° |
| 2026-05-05 15:55 | 37.25480 | -122.07161 | 8388 ft | 255 kts | 345° |
| 2026-05-05 15:55 | 37.27172 | -122.07823 | 8052 ft | 254 kts | 345° |
| 2026-05-05 15:55 | 37.28860 | -122.08479 | 7717 ft | 253 kts | 344° |
| 2026-05-05 15:56 | 37.30537 | -122.09137 | 7390 ft | 252 kts | 343° |
| 2026-05-05 15:56 | 37.32211 | -122.09795 | 7060 ft | 252 kts | 343° |
| 2026-05-05 15:56 | 37.33885 | -122.10452 | 6728 ft | 252 kts | 343° |
| 2026-05-05 15:56 | 37.35560 | -122.11112 | 6396 ft | 252 kts | 343° |
| 2026-05-05 15:57 | 37.37233 | -122.11773 | 6042 ft | 251 kts | 343° |
| 2026-05-05 15:57 | 37.38907 | -122.12378 | 5732 ft | 249 kts | 344° |
| 2026-05-05 15:57 | 37.40568 | -122.12941 | 5433 ft | 246 kts | 344° |
| 2026-05-05 15:57 | 37.42210 | -122.13501 | 5137 ft | 243 kts | 343° |
| 2026-05-05 15:58 | 37.43834 | -122.14053 | 4846 ft | 240 kts | 343° |
| 2026-05-05 15:58 | 37.45433 | -122.14591 | 4570 ft | 234 kts | 343° |
| 2026-05-05 15:58 | 37.46971 | -122.15108 | 4290 ft | 224 kts | 343° |
| 2026-05-05 15:58 | 37.48426 | -122.15586 | 4026 ft | 213 kts | 343° |
| 2026-05-05 15:59 | 37.49827 | -122.16043 | 3759 ft | 203 kts | 343° |
| 2026-05-05 15:59 | 37.51170 | -122.16488 | 3514 ft | 199 kts | 343° |
| 2026-05-05 15:59 | 37.52509 | -122.16930 | 3273 ft | 198 kts | 342° |
| 2026-05-05 15:59 | 37.53663 | -122.17730 | 3039 ft | 185 kts | 306° |
| 2026-05-05 16:00 | 37.54249 | -122.19064 | 2956 ft | 168 kts | 303° |
| 2026-05-05 16:00 | 37.54883 | -122.20245 | 2794 ft | 159 kts | 300° |
| 2026-05-05 16:00 | 37.55405 | -122.21441 | 2584 ft | 154 kts | 297° |
| 2026-05-05 16:00 | 37.55908 | -122.22643 | 2382 ft | 156 kts | 297° |
| 2026-05-05 16:01 | 37.56412 | -122.23854 | 2175 ft | 156 kts | 297° |
| 2026-05-05 16:01 | 37.56914 | -122.25062 | 1947 ft | 154 kts | 297° |
| 2026-05-05 16:01 | 37.57408 | -122.26250 | 1754 ft | 152 kts | 297° |
| 2026-05-05 16:01 | 37.57905 | -122.27444 | 1559 ft | 155 kts | 297° |
| 2026-05-05 16:02 | 37.58397 | -122.28625 | 1324 ft | 148 kts | 297° |
| 2026-05-05 16:02 | 37.58870 | -122.29757 | 1129 ft | 143 kts | 297° |
| 2026-05-05 16:02 | 37.59334 | -122.30865 | 1046 ft | 145 kts | 297° |
| 2026-05-05 16:02 | 37.59796 | -122.31987 | 853 ft | 144 kts | 297° |
| 2026-05-05 16:03 | 37.60253 | -122.33100 | 633 ft | 143 kts | 297° |
| 2026-05-05 16:03 | 37.60713 | -122.34196 | 362 ft | 144 kts | 298° |
| 2026-05-05 16:03 | 37.61171 | -122.35286 | 168 ft | 138 kts | 296° |
| 2026-05-05 16:03 | 37.61610 | -122.36329 | 20 ft | 128 kts | 297° |
| 2026-05-05 16:04 | 37.61972 | -122.37191 | 14 ft | 91 kts | 297° |
| 2026-05-05 16:04 | 37.62144 | -122.37632 | 19 ft | 27 kts | 276° |
| 2026-05-05 16:04 | 37.62094 | -122.37752 | 22 ft | 7 kts | 230° |
| 2026-05-05 16:04 | 37.62063 | -122.37796 | 23 ft | 7 kts | 229° |
| 2026-05-05 16:05 | 37.62033 | -122.37838 | 23 ft | 7 kts | 226° |
| 2026-05-05 16:05 | 37.62000 | -122.37884 | 23 ft | 8 kts | 230° |
| 2026-05-05 16:05 | 37.61959 | -122.37940 | 21 ft | 9 kts | 228° |
| 2026-05-05 16:05 | 37.61902 | -122.37990 | 22 ft | 11 kts | 194° |
| 2026-05-05 16:06 | 37.61823 | -122.37968 | 20 ft | 9 kts | 156° |
| 2026-05-05 16:06 | 37.61748 | -122.37946 | 17 ft | 13 kts | 175° |
| 2026-05-05 16:06 | 37.61656 | -122.37971 | 16 ft | 14 kts | 201° |
| 2026-05-05 16:06 | 37.61570 | -122.38025 | 13 ft | 13 kts | 208° |
| 2026-05-05 16:07 | 37.61489 | -122.38078 | 14 ft | 13 kts | 207° |
| 2026-05-05 16:07 | 37.61411 | -122.38131 | 15 ft | 13 kts | 208° |
| 2026-05-05 16:07 | 37.61335 | -122.38182 | 14 ft | 12 kts | 207° |
| 2026-05-05 16:07 | 37.61262 | -122.38233 | 15 ft | 12 kts | 207° |
| 2026-05-05 16:08 | 37.61190 | -122.38279 | 17 ft | 11 kts | 210° |
| 2026-05-05 16:08 | 37.61151 | -122.38362 | 17 ft | 11 kts | 249° |
| 2026-05-05 16:08 | 37.61096 | -122.38423 | 19 ft | 8 kts | 210° |
| 2026-05-05 16:08 | 37.61078 | -122.38471 | 18 ft | 4 kts | 277° |
| 2026-05-05 16:09 | 37.61084 | -122.38494 | 18 ft | 1 kts | 295° |
| 2026-05-05 16:09 | 37.61087 | -122.38501 | 18 ft | 0 kts | 297° |